createdAt,value
2022-09-15T00:00:30.484Z,0.00
2022-09-15T00:02:57.147Z,0.00
2022-09-15T00:05:23.823Z,0.20
2022-09-15T00:07:50.484Z,0.00
2022-09-15T00:10:17.629Z,0.00
2022-09-15T00:12:44.816Z,0.00
2022-09-15T00:15:14.763Z,0.00
2022-09-15T00:17:47.675Z,0.00
2022-09-15T00:20:14.509Z,0.10
2022-09-15T00:22:41.057Z,0.00
2022-09-15T00:25:07.931Z,0.00
2022-09-15T00:27:34.806Z,0.00
2022-09-15T00:30:01.797Z,0.10
2022-09-15T00:32:29.866Z,0.20
2022-09-15T00:34:56.524Z,0.00
2022-09-15T00:37:23.212Z,0.03
2022-09-15T00:39:49.800Z,0.00
2022-09-15T00:42:19.393Z,0.00
2022-09-15T00:44:52.716Z,0.00
2022-09-15T00:47:25.224Z,0.00
2022-09-15T00:49:59.479Z,0.25
2022-09-15T00:52:47.564Z,0.00
2022-09-15T00:55:24.034Z,0.00
2022-09-15T00:58:06.531Z,0.00
2022-09-15T01:00:33.957Z,0.35
2022-09-15T01:03:01.644Z,0.00
2022-09-15T01:06:04.114Z,0.00
2022-09-15T01:08:44.897Z,0.00
2022-09-15T01:11:11.721Z,0.00
2022-09-15T01:13:38.294Z,0.00
2022-09-15T01:16:32.853Z,0.00
2022-09-15T01:19:21.906Z,0.25
2022-09-15T01:22:03.848Z,0.00
2022-09-15T01:24:55.218Z,0.00
2022-09-15T01:28:08.612Z,0.00
2022-09-15T01:30:40.902Z,0.00
2022-09-15T01:33:28.413Z,0.00
2022-09-15T01:36:18.061Z,0.00
2022-09-15T01:38:54.882Z,0.00
2022-09-15T01:41:35.871Z,0.00
2022-09-15T01:44:18.511Z,0.00
2022-09-15T01:46:55.746Z,0.00
2022-09-15T01:49:30.524Z,0.00
2022-09-15T01:51:57.137Z,0.00
2022-09-15T01:54:36.950Z,0.00
2022-09-15T01:57:03.940Z,0.00
2022-09-15T01:59:30.567Z,0.00
2022-09-15T02:02:03.135Z,0.17
2022-09-15T02:04:38.801Z,0.00
2022-09-15T02:07:08.211Z,0.00
2022-09-15T02:09:54.593Z,0.00
2022-09-15T02:12:35.408Z,0.00
2022-09-15T02:15:12.330Z,0.00
2022-09-15T02:17:45.566Z,0.00
2022-09-15T02:20:29.737Z,0.00
2022-09-15T02:23:08.025Z,0.00
2022-09-15T02:25:51.620Z,0.00
2022-09-15T02:28:25.479Z,0.00
2022-09-15T02:30:56.137Z,0.00
2022-09-15T02:33:28.826Z,0.00
2022-09-15T02:35:55.740Z,0.00
2022-09-15T02:38:23.022Z,0.00
2022-09-15T02:40:49.721Z,0.00
2022-09-15T02:43:18.722Z,0.00
2022-09-15T02:45:45.879Z,0.00
2022-09-15T02:48:12.988Z,0.00
2022-09-15T02:50:39.900Z,0.00
2022-09-15T02:53:06.816Z,0.00
2022-09-15T02:55:33.795Z,0.55
2022-09-15T02:58:00.680Z,0.00
2022-09-15T03:00:28.458Z,0.00
2022-09-15T03:02:56.032Z,0.00
2022-09-15T03:05:29.711Z,0.00
2022-09-15T03:07:57.143Z,0.00
2022-09-15T03:10:25.381Z,0.08
2022-09-15T03:12:54.495Z,0.00
2022-09-15T03:15:24.564Z,0.22
2022-09-15T03:17:52.510Z,0.00
2022-09-15T03:20:23.971Z,0.00
2022-09-15T03:22:50.700Z,0.05
2022-09-15T03:25:18.272Z,0.00
2022-09-15T03:27:44.950Z,0.00
2022-09-15T03:30:12.854Z,0.03
2022-09-15T03:32:39.830Z,0.00
2022-09-15T03:35:07.537Z,0.22
2022-09-15T03:37:34.535Z,0.00
2022-09-15T03:40:01.391Z,0.00
2022-09-15T03:42:28.007Z,0.00
2022-09-15T03:44:54.641Z,0.00
2022-09-15T03:47:21.228Z,0.00
2022-09-15T03:49:47.822Z,0.00
2022-09-15T03:52:14.439Z,0.13
2022-09-15T03:54:41.324Z,0.43
2022-09-15T03:57:07.972Z,0.00
2022-09-15T03:59:34.513Z,0.00
2022-09-15T04:02:01.121Z,0.00
2022-09-15T04:04:27.981Z,0.00
2022-09-15T04:06:54.584Z,0.00
2022-09-15T04:09:21.436Z,0.00
2022-09-15T04:11:48.184Z,0.00
2022-09-15T04:14:14.788Z,0.00
2022-09-15T04:16:41.483Z,0.10
2022-09-15T04:19:08.308Z,0.00
2022-09-15T04:21:34.960Z,0.00
2022-09-15T04:24:01.900Z,0.00
2022-09-15T04:26:31.993Z,0.00
2022-09-15T04:29:04.291Z,0.00
2022-09-15T04:31:33.616Z,0.00
2022-09-15T04:34:00.774Z,1.10
2022-09-15T04:36:28.829Z,0.00
2022-09-15T04:38:57.103Z,0.00
2022-09-15T04:41:25.594Z,0.00
2022-09-15T04:43:53.177Z,0.00
2022-09-15T04:46:19.931Z,0.00
2022-09-15T04:48:46.728Z,0.00
2022-09-15T04:51:21.588Z,0.00
2022-09-15T04:53:49.505Z,0.00
2022-09-15T04:56:21.736Z,0.00
2022-09-15T04:58:52.749Z,0.00
2022-09-15T05:01:23.531Z,0.00
2022-09-15T05:03:50.926Z,0.00
2022-09-15T05:06:22.000Z,0.00
2022-09-15T05:08:54.956Z,0.00
2022-09-15T05:11:22.223Z,0.00
2022-09-15T05:13:49.473Z,0.00
2022-09-15T05:16:20.040Z,0.10
2022-09-15T05:18:49.541Z,0.00
2022-09-15T05:21:20.080Z,0.00
2022-09-15T05:23:47.369Z,0.00
2022-09-15T05:26:22.115Z,0.00
2022-09-15T05:28:48.817Z,0.00
2022-09-15T05:31:28.070Z,0.00
2022-09-15T05:33:55.114Z,0.00
2022-09-15T05:36:25.120Z,0.00
2022-09-15T05:38:54.179Z,0.00
2022-09-15T05:41:20.947Z,0.00
2022-09-15T05:43:49.121Z,0.00
2022-09-15T05:46:17.483Z,0.00
2022-09-15T05:48:45.748Z,0.00
2022-09-15T05:51:13.922Z,0.00
2022-09-15T05:53:40.796Z,0.00
2022-09-15T05:56:11.995Z,0.00
2022-09-15T05:58:40.728Z,0.00
2022-09-15T06:01:20.483Z,0.00
2022-09-15T06:03:48.401Z,0.00
2022-09-15T06:06:15.327Z,0.22
2022-09-15T06:08:51.722Z,0.00
2022-09-15T06:11:24.591Z,0.00
2022-09-15T06:13:51.511Z,0.00
2022-09-15T06:16:21.569Z,0.00
2022-09-15T06:18:50.546Z,0.00
2022-09-15T06:21:24.038Z,0.00
2022-09-15T06:24:06.896Z,0.00
2022-09-15T06:26:34.577Z,0.00
2022-09-15T06:29:03.728Z,0.15
2022-09-15T06:31:33.020Z,0.00
2022-09-15T06:34:00.636Z,0.00
2022-09-15T06:36:29.683Z,0.00
2022-09-15T06:38:56.849Z,0.00
2022-09-15T06:41:23.960Z,0.00
2022-09-15T06:43:50.749Z,0.00
2022-09-15T06:46:23.850Z,0.00
2022-09-15T06:48:51.892Z,0.00
2022-09-15T06:51:22.899Z,0.00
2022-09-15T06:53:50.006Z,0.00
2022-09-15T06:56:22.177Z,0.00
2022-09-15T06:58:49.306Z,0.00
2022-09-15T07:01:26.460Z,0.00
2022-09-15T07:03:55.268Z,0.00
2022-09-15T07:06:22.561Z,0.00
2022-09-15T07:08:50.172Z,0.00
2022-09-15T07:11:18.412Z,0.00
2022-09-15T07:13:45.444Z,0.10
2022-09-15T07:16:13.558Z,0.00
2022-09-15T07:18:43.525Z,0.00
2022-09-15T07:21:22.881Z,0.00
2022-09-15T07:23:50.240Z,0.00
2022-09-15T07:26:23.783Z,0.10
2022-09-15T07:29:05.821Z,0.00
2022-09-15T07:31:35.337Z,0.65
2022-09-15T07:34:02.633Z,0.00
2022-09-15T07:36:31.180Z,0.08
2022-09-15T07:38:58.428Z,0.10
2022-09-15T07:41:30.609Z,0.00
2022-09-15T07:43:59.705Z,0.00
2022-09-15T07:46:30.144Z,0.00
2022-09-15T07:48:56.968Z,0.08
2022-09-15T07:51:25.348Z,0.00
2022-09-15T07:53:52.908Z,0.00
2022-09-15T07:56:20.415Z,0.00
2022-09-15T07:58:48.437Z,0.00
2022-09-15T08:01:17.326Z,0.00
2022-09-15T08:03:48.678Z,0.00
2022-09-15T08:06:18.619Z,0.00
2022-09-15T08:08:45.753Z,0.00
2022-09-15T08:11:19.007Z,0.00
2022-09-15T08:13:51.024Z,0.00
2022-09-15T08:16:23.914Z,0.00
2022-09-15T08:18:53.647Z,0.00
2022-09-15T08:21:22.136Z,0.00
2022-09-15T08:23:58.459Z,0.00
2022-09-15T08:26:27.338Z,0.00
2022-09-15T08:28:53.995Z,0.00
2022-09-15T08:31:21.305Z,0.00
2022-09-15T08:33:53.121Z,0.00
2022-09-15T08:36:20.295Z,0.00
2022-09-15T08:38:47.389Z,0.00
2022-09-15T08:41:21.351Z,0.20
2022-09-15T08:44:20.327Z,0.00
2022-09-15T08:46:54.789Z,0.00
2022-09-15T08:49:50.598Z,0.20
2022-09-15T08:52:35.212Z,0.00
2022-09-15T08:55:33.369Z,0.00
2022-09-15T08:57:59.985Z,0.00
2022-09-15T09:00:27.096Z,0.00
2022-09-15T09:03:15.651Z,0.00
2022-09-15T09:05:51.935Z,0.00
2022-09-15T09:08:46.853Z,0.00
2022-09-15T09:11:19.363Z,0.00
2022-09-15T09:14:34.100Z,0.00
2022-09-15T09:17:42.960Z,0.10
2022-09-15T09:20:39.141Z,0.00
2022-09-15T09:25:42.981Z,0.70
2022-09-15T09:28:30.085Z,0.82
2022-09-15T09:31:08.217Z,0.95
2022-09-15T09:33:47.705Z,1.67
2022-09-15T09:36:15.280Z,1.65
2022-09-15T09:38:46.859Z,1.60
2022-09-15T09:41:18.567Z,2.67
2022-09-15T09:43:48.853Z,2.40
2022-09-15T09:46:18.959Z,2.80
2022-09-15T09:49:00.999Z,1.95
2022-09-15T09:51:33.396Z,1.77
2022-09-15T09:54:16.340Z,1.85
2022-09-15T09:56:44.726Z,1.55
2022-09-15T09:59:48.444Z,1.70
2022-09-15T10:02:16.294Z,2.53
2022-09-15T10:04:46.714Z,1.48
2022-09-15T10:07:16.773Z,1.08
2022-09-15T10:09:56.508Z,1.75
2022-09-15T10:12:41.116Z,1.00
2022-09-15T10:15:22.979Z,2.30
2022-09-15T10:17:51.105Z,1.75
2022-09-15T10:20:35.543Z,1.77
2022-09-15T10:23:24.300Z,2.03
2022-09-15T10:26:01.341Z,2.15
2022-09-15T10:28:28.741Z,2.08
2022-09-15T10:31:26.954Z,2.22
2022-09-15T10:33:53.576Z,2.33
2022-09-15T10:36:31.648Z,2.20
2022-09-15T10:39:31.344Z,2.00
2022-09-15T10:42:24.693Z,2.20
2022-09-15T10:45:12.198Z,2.40
2022-09-15T10:47:56.701Z,1.80
2022-09-15T10:50:32.363Z,2.10
2022-09-15T10:53:31.188Z,1.50
2022-09-15T10:56:19.080Z,1.70
2022-09-15T10:58:48.962Z,1.27
2022-09-15T11:01:30.639Z,1.38
2022-09-15T11:04:39.449Z,1.98
2022-09-15T11:07:38.085Z,1.40
2022-09-15T11:10:32.357Z,2.03
2022-09-15T11:13:20.868Z,2.20
2022-09-15T11:16:47.467Z,1.30
2022-09-15T11:19:26.103Z,0.90
2022-09-15T11:22:20.033Z,1.40
2022-09-15T11:25:28.280Z,1.30
2022-09-15T11:28:14.342Z,1.27
2022-09-15T11:31:05.607Z,1.08
2022-09-15T11:33:44.135Z,1.52
2022-09-15T11:36:19.883Z,0.90
2022-09-15T11:39:16.120Z,1.05
2022-09-15T11:41:56.383Z,1.10
2022-09-15T11:44:27.597Z,1.00
2022-09-15T11:47:29.273Z,1.00
2022-09-15T11:50:28.467Z,1.08
2022-09-15T11:53:21.740Z,0.95
2022-09-15T11:56:24.750Z,1.02
2022-09-15T11:59:01.213Z,1.48
2022-09-15T12:01:48.542Z,1.20
2022-09-15T12:04:37.669Z,1.10
2022-09-15T12:07:22.880Z,1.30
2022-09-15T12:09:49.920Z,1.30
2022-09-15T12:12:21.017Z,1.40
2022-09-15T12:14:51.471Z,1.20
2022-09-15T12:17:34.251Z,1.10
2022-09-15T12:20:22.748Z,1.25
2022-09-15T12:23:04.815Z,1.80
2022-09-15T12:26:23.866Z,1.35
2022-09-15T12:29:02.327Z,1.30
2022-09-15T12:31:37.514Z,1.23
2022-09-15T12:34:27.105Z,1.85
2022-09-15T12:37:13.726Z,1.38
2022-09-15T12:39:46.096Z,1.98
2022-09-15T12:42:45.712Z,1.27
2022-09-15T12:45:36.141Z,1.23
2022-09-15T12:48:13.971Z,1.65
2022-09-15T12:50:53.910Z,1.70
2022-09-15T12:53:28.235Z,1.67
2022-09-15T12:56:00.442Z,1.38
2022-09-15T12:58:40.366Z,1.55
2022-09-15T13:01:19.608Z,1.60
2022-09-15T13:03:47.240Z,1.80
2022-09-15T13:06:16.005Z,2.45
2022-09-15T13:08:48.183Z,2.45
2022-09-15T13:11:34.416Z,2.08
2022-09-15T13:14:04.049Z,1.52
2022-09-15T13:16:43.810Z,1.60
2022-09-15T13:19:41.213Z,1.85
2022-09-15T13:22:10.849Z,2.00
2022-09-15T13:25:15.554Z,2.15
2022-09-15T13:27:58.464Z,1.88
2022-09-15T13:30:43.487Z,2.05
2022-09-15T13:40:52.343Z,2.65
2022-09-15T13:43:59.602Z,2.65
2022-09-15T13:46:53.387Z,1.98
2022-09-15T13:49:32.826Z,2.22
2022-09-15T13:52:22.433Z,3.63
2022-09-15T13:55:27.943Z,2.42
2022-09-15T14:00:58.591Z,1.42
2022-09-15T14:03:56.482Z,2.00
2022-09-15T14:06:33.624Z,1.65
2022-09-15T14:09:09.010Z,2.10
2022-09-15T14:11:37.499Z,2.85
2022-09-15T14:14:11.423Z,2.05
2022-09-15T14:16:39.194Z,1.67
2022-09-15T14:19:37.282Z,1.85
2022-09-15T14:22:30.428Z,2.15
2022-09-15T14:25:11.315Z,1.52
2022-09-15T14:27:44.072Z,1.27
2022-09-15T14:30:31.988Z,1.08
2022-09-15T14:33:01.880Z,1.20
2022-09-15T14:35:38.045Z,1.13
2022-09-15T14:38:05.078Z,1.73
2022-09-15T14:40:37.805Z,1.02
2022-09-15T14:43:26.740Z,0.65
2022-09-15T14:45:56.856Z,1.10
2022-09-15T14:48:28.131Z,0.85
2022-09-15T14:51:07.123Z,0.90
2022-09-15T14:53:38.053Z,0.50
2022-09-15T14:56:26.020Z,0.80
2022-09-15T14:58:57.981Z,0.68
2022-09-15T15:01:41.741Z,0.88
2022-09-15T15:04:36.181Z,0.85
2022-09-15T15:07:19.908Z,0.60
2022-09-15T15:09:56.367Z,0.88
2022-09-15T15:12:31.896Z,0.50
2022-09-15T15:15:00.383Z,0.50
2022-09-15T15:17:39.890Z,0.60
2022-09-15T15:20:09.283Z,0.40
2022-09-15T15:22:37.900Z,0.40
2022-09-15T15:25:29.584Z,0.85
2022-09-15T15:28:00.507Z,0.50
2022-09-15T15:30:30.633Z,0.85
2022-09-15T15:33:17.433Z,0.60
2022-09-15T15:35:46.513Z,1.08
2022-09-15T15:38:25.181Z,0.60
2022-09-15T15:41:04.553Z,0.70
2022-09-15T15:43:31.728Z,0.65
2022-09-15T15:46:02.860Z,0.57
2022-09-15T15:48:36.837Z,0.90
2022-09-15T15:51:05.732Z,0.73
2022-09-15T15:53:32.402Z,0.95
2022-09-15T15:56:00.349Z,0.98
2022-09-15T15:58:27.254Z,1.00
2022-09-15T16:00:56.501Z,0.68
2022-09-15T16:03:24.944Z,0.88
2022-09-15T16:05:54.765Z,1.00
2022-09-15T16:08:26.812Z,0.88
2022-09-15T16:10:54.943Z,0.60
2022-09-15T16:13:23.721Z,0.90
2022-09-15T16:15:52.285Z,0.88
2022-09-15T16:18:19.012Z,1.30
2022-09-15T16:20:45.659Z,1.27
2022-09-15T16:23:22.723Z,1.40
2022-09-15T16:26:02.382Z,1.88
2022-09-15T16:28:29.486Z,1.35
2022-09-15T16:30:59.214Z,1.38
2022-09-15T16:33:26.663Z,1.67
2022-09-15T16:36:09.219Z,1.88
2022-09-15T16:38:36.725Z,1.40
2022-09-15T16:41:10.286Z,1.23
2022-09-15T16:43:36.931Z,0.98
2022-09-15T16:46:05.689Z,1.63
2022-09-15T16:48:32.387Z,1.60
2022-09-15T16:53:47.507Z,1.95
2022-09-15T16:56:15.662Z,1.40
2022-09-15T16:58:43.260Z,1.45
2022-09-15T17:01:19.559Z,1.30
2022-09-15T17:03:47.426Z,0.90
2022-09-15T17:06:17.582Z,1.20
2022-09-15T17:08:44.943Z,1.10
2022-09-15T17:11:18.614Z,1.50
2022-09-15T17:13:46.877Z,1.20
2022-09-15T17:16:19.123Z,1.40
2022-09-15T17:18:46.845Z,1.10
2022-09-15T17:21:16.262Z,1.25
2022-09-15T17:23:48.515Z,0.90
2022-09-15T17:26:21.439Z,1.77
2022-09-15T17:28:48.207Z,0.80
2022-09-15T17:31:24.739Z,1.48
2022-09-15T17:33:52.067Z,1.08
2022-09-15T17:36:18.893Z,0.90
2022-09-15T17:38:45.940Z,0.45
2022-09-15T17:41:19.222Z,1.10
2022-09-15T17:43:46.393Z,1.08
2022-09-15T17:46:13.570Z,2.00
2022-09-15T17:48:40.329Z,0.90
2022-09-15T17:51:09.833Z,0.70
2022-09-15T17:53:37.066Z,0.70
2022-09-15T17:56:03.821Z,0.98
2022-09-15T17:58:31.806Z,1.10
2022-09-15T18:00:59.231Z,0.80
2022-09-15T18:03:34.622Z,0.80
2022-09-15T18:06:07.968Z,0.70
2022-09-15T18:08:36.119Z,0.80
2022-09-15T18:11:05.146Z,1.02
2022-09-15T18:13:32.420Z,1.23
2022-09-15T18:16:11.279Z,0.80
2022-09-15T18:18:39.889Z,1.27
2022-09-15T18:21:24.445Z,1.70
2022-09-15T18:23:51.146Z,1.10
2022-09-15T18:26:21.462Z,1.10
2022-09-15T18:28:54.171Z,1.08
2022-09-15T18:31:20.971Z,0.82
2022-09-15T18:33:47.644Z,0.80
2022-09-15T18:36:14.220Z,1.20
2022-09-15T18:38:41.678Z,1.05
2022-09-15T18:41:11.711Z,1.70
2022-09-15T18:43:38.399Z,1.40
2022-09-15T18:46:05.104Z,0.95
2022-09-15T18:48:31.700Z,0.95
2022-09-15T18:50:58.658Z,0.75
2022-09-15T18:53:25.437Z,1.48
2022-09-15T18:55:52.231Z,0.85
2022-09-15T18:58:22.590Z,1.17
2022-09-15T19:00:50.021Z,1.30
2022-09-15T19:03:16.636Z,2.22
2022-09-15T19:05:43.229Z,1.00
2022-09-15T19:08:11.296Z,1.08
2022-09-15T19:10:41.369Z,1.20
2022-09-15T19:13:09.892Z,1.70
2022-09-15T19:15:38.464Z,2.92
2022-09-15T19:18:05.533Z,1.52
2022-09-15T19:20:32.255Z,0.98
2022-09-15T19:22:58.910Z,1.13
2022-09-15T19:25:25.458Z,1.10
2022-09-15T19:27:52.084Z,0.80
2022-09-15T19:30:18.862Z,1.08
2022-09-15T19:32:45.546Z,0.63
2022-09-15T19:35:12.281Z,0.95
2022-09-15T19:37:41.546Z,0.93
2022-09-15T19:40:13.105Z,0.88
2022-09-15T19:42:42.423Z,1.02
2022-09-15T19:45:11.324Z,1.17
2022-09-15T19:47:39.135Z,0.88
2022-09-15T19:50:08.722Z,0.70
2022-09-15T19:52:35.571Z,1.20
2022-09-15T19:55:02.226Z,1.73
2022-09-15T19:57:29.043Z,0.90
2022-09-15T19:59:55.664Z,1.77
2022-09-15T20:02:22.359Z,0.98
2022-09-15T20:04:50.322Z,0.60
2022-09-15T20:07:17.164Z,0.90
2022-09-15T20:09:44.135Z,1.00
2022-09-15T20:12:10.728Z,1.52
2022-09-15T20:14:37.426Z,0.80
2022-09-15T20:17:04.829Z,1.63
2022-09-15T20:19:31.499Z,0.90
2022-09-15T20:21:58.179Z,0.93
2022-09-15T20:24:24.969Z,1.10
2022-09-15T20:26:51.693Z,0.70
2022-09-15T20:29:18.858Z,1.15
2022-09-15T20:31:46.093Z,1.20
2022-09-15T20:34:12.755Z,0.90
2022-09-15T20:36:40.244Z,1.05
2022-09-15T20:39:14.459Z,1.30
2022-09-15T20:41:44.935Z,1.00
2022-09-15T20:44:12.279Z,0.85
2022-09-15T20:46:39.399Z,1.13
2022-09-15T20:49:06.786Z,0.90
2022-09-15T20:51:33.965Z,1.20
2022-09-15T20:54:05.792Z,1.23
2022-09-15T20:56:36.010Z,1.05
2022-09-15T20:59:04.900Z,1.17
2022-09-15T21:01:38.504Z,1.20
2022-09-15T21:04:07.806Z,0.70
2022-09-15T21:06:35.022Z,1.45
2022-09-15T21:09:02.359Z,0.82
2022-09-15T21:11:29.553Z,0.95
2022-09-15T21:13:57.531Z,0.88
2022-09-15T21:16:27.779Z,0.90
2022-09-15T21:18:57.965Z,1.02
2022-09-15T21:21:29.655Z,0.70
2022-09-15T21:24:01.055Z,2.63
2022-09-15T21:26:31.547Z,0.82
2022-09-15T21:28:58.377Z,1.25
2022-09-15T21:31:31.095Z,0.73
2022-09-15T21:33:59.095Z,0.93
2022-09-15T21:36:29.654Z,1.05
2022-09-15T21:38:58.196Z,0.90
2022-09-15T21:41:29.626Z,0.80
2022-09-15T21:43:58.184Z,0.90
2022-09-15T21:46:28.250Z,1.05
2022-09-15T21:48:57.696Z,0.98
2022-09-15T21:51:26.842Z,0.80
2022-09-15T21:53:56.016Z,0.90
2022-09-15T21:56:24.129Z,0.82
2022-09-15T21:58:50.966Z,1.20
2022-09-15T22:01:19.628Z,0.98
2022-09-15T22:03:54.945Z,0.98
2022-09-15T22:06:30.149Z,1.15
2022-09-15T22:08:57.789Z,1.88
2022-09-15T22:11:24.518Z,0.95
2022-09-15T22:13:51.329Z,1.65
2022-09-15T22:16:21.613Z,1.40
2022-09-15T22:18:49.394Z,1.42
2022-09-15T22:21:15.931Z,1.05
2022-09-15T22:23:44.162Z,1.35
2022-09-15T22:26:18.041Z,1.30
2022-09-15T22:28:45.375Z,1.20
2022-09-15T22:31:14.268Z,1.42
2022-09-15T22:33:42.297Z,0.82
2022-09-15T22:36:14.518Z,1.23
2022-09-15T22:38:41.644Z,1.75
2022-09-15T22:41:14.401Z,1.23
2022-09-15T22:43:43.172Z,2.20
2022-09-15T22:46:11.767Z,1.17
2022-09-15T22:48:43.028Z,1.60
2022-09-15T22:51:11.385Z,1.00
2022-09-15T22:53:38.117Z,1.00
2022-09-15T22:56:19.834Z,1.45
2022-09-15T22:58:49.217Z,0.95
2022-09-15T23:01:19.823Z,1.23
2022-09-15T23:03:51.768Z,1.33
2022-09-15T23:06:19.307Z,1.25
2022-09-15T23:08:54.867Z,1.40
2022-09-15T23:11:22.665Z,1.30
2022-09-15T23:13:49.526Z,1.63
2022-09-15T23:16:17.113Z,1.08
2022-09-15T23:18:44.128Z,1.27
2022-09-15T23:21:12.818Z,1.25
2022-09-15T23:23:43.033Z,1.13
2022-09-15T23:26:11.807Z,1.02
2022-09-15T23:28:39.293Z,0.80
2022-09-15T23:31:06.836Z,0.98
2022-09-15T23:33:34.271Z,1.38
2022-09-15T23:36:07.022Z,1.10
2022-09-15T23:38:39.432Z,1.00
2022-09-15T23:41:07.099Z,1.02
2022-09-15T23:43:34.455Z,0.82
2022-09-15T23:46:02.289Z,1.30
2022-09-15T23:48:31.491Z,0.95
2022-09-15T23:50:58.359Z,0.93
2022-09-15T23:53:25.475Z,0.85
2022-09-15T23:55:52.489Z,1.35
2022-09-15T23:58:19.146Z,0.75
